sensor_id;sensor_type;location;lat;lon;timestamp;temperature;humidity
6375;DHT22;35400;45.472;-122.822;2023-05-07T00:00:18;20.20;95.50
6375;DHT22;35400;45.472;-122.822;2023-05-07T00:02:46;20.20;95.70
6375;DHT22;35400;45.472;-122.822;2023-05-07T00:05:13;20.30;95.60
6375;DHT22;35400;45.472;-122.822;2023-05-07T00:07:40;20.30;95.90
6375;DHT22;35400;45.472;-122.822;2023-05-07T00:10:08;20.30;95.80
6375;DHT22;35400;45.472;-122.822;2023-05-07T00:12:34;20.30;95.70
6375;DHT22;35400;45.472;-122.822;2023-05-07T00:15:03;20.30;95.20
6375;DHT22;35400;45.472;-122.822;2023-05-07T00:17:30;20.30;95.20
6375;DHT22;35400;45.472;-122.822;2023-05-07T00:19:57;20.30;95.10
6375;DHT22;35400;45.472;-122.822;2023-05-07T00:22:23;20.30;95.40
6375;DHT22;35400;45.472;-122.822;2023-05-07T00:24:51;20.30;95.40
6375;DHT22;35400;45.472;-122.822;2023-05-07T00:27:17;20.30;95.40
6375;DHT22;35400;45.472;-122.822;2023-05-07T00:29:44;20.20;94.90
6375;DHT22;35400;45.472;-122.822;2023-05-07T00:32:11;20.20;95.00
6375;DHT22;35400;45.472;-122.822;2023-05-07T00:34:40;20.20;95.50
6375;DHT22;35400;45.472;-122.822;2023-05-07T00:37:06;20.20;95.10
6375;DHT22;35400;45.472;-122.822;2023-05-07T00:39:39;20.20;94.60
6375;DHT22;35400;45.472;-122.822;2023-05-07T00:42:06;20.10;94.60
6375;DHT22;35400;45.472;-122.822;2023-05-07T00:44:34;20.10;94.50
6375;DHT22;35400;45.472;-122.822;2023-05-07T00:47:02;20.00;94.00
6375;DHT22;35400;45.472;-122.822;2023-05-07T00:49:42;19.90;94.30
6375;DHT22;35400;45.472;-122.822;2023-05-07T00:52:13;19.80;94.60
6375;DHT22;35400;45.472;-122.822;2023-05-07T00:54:41;19.80;94.90
6375;DHT22;35400;45.472;-122.822;2023-05-07T00:57:09;19.70;96.60
6375;DHT22;35400;45.472;-122.822;2023-05-07T00:59:37;19.60;98.00
6375;DHT22;35400;45.472;-122.822;2023-05-07T01:02:04;19.60;99.80
6375;DHT22;35400;45.472;-122.822;2023-05-07T01:04:32;19.40;99.60
6375;DHT22;35400;45.472;-122.822;2023-05-07T01:06:59;19.30;99.90
6375;DHT22;35400;45.472;-122.822;2023-05-07T01:09:28;19.20;99.20
6375;DHT22;35400;45.472;-122.822;2023-05-07T01:11:56;19.10;98.80
6375;DHT22;35400;45.472;-122.822;2023-05-07T01:14:24;19.00;98.90
6375;DHT22;35400;45.472;-122.822;2023-05-07T01:16:52;18.90;98.40
6375;DHT22;35400;45.472;-122.822;2023-05-07T01:19:21;18.80;99.40
6375;DHT22;35400;45.472;-122.822;2023-05-07T01:21:49;18.60;99.90
6375;DHT22;35400;45.472;-122.822;2023-05-07T01:24:18;18.50;99.90
6375;DHT22;35400;45.472;-122.822;2023-05-07T01:26:45;18.30;99.90
6375;DHT22;35400;45.472;-122.822;2023-05-07T01:29:15;18.10;99.90
6375;DHT22;35400;45.472;-122.822;2023-05-07T01:31:42;18.00;98.60
6375;DHT22;35400;45.472;-122.822;2023-05-07T01:34:10;17.80;98.80
6375;DHT22;35400;45.472;-122.822;2023-05-07T01:36:39;17.70;99.40
6375;DHT22;35400;45.472;-122.822;2023-05-07T01:39:06;17.60;99.90
6375;DHT22;35400;45.472;-122.822;2023-05-07T01:41:34;17.50;99.90
6375;DHT22;35400;45.472;-122.822;2023-05-07T01:44:03;17.40;99.90
6375;DHT22;35400;45.472;-122.822;2023-05-07T01:46:31;17.40;99.90
6375;DHT22;35400;45.472;-122.822;2023-05-07T01:48:59;17.30;99.90
6375;DHT22;35400;45.472;-122.822;2023-05-07T01:51:26;17.30;99.90
6375;DHT22;35400;45.472;-122.822;2023-05-07T01:53:53;17.20;99.90
6375;DHT22;35400;45.472;-122.822;2023-05-07T01:56:21;17.10;99.90
6375;DHT22;35400;45.472;-122.822;2023-05-07T01:58:51;17.00;99.90
6375;DHT22;35400;45.472;-122.822;2023-05-07T02:01:18;17.00;99.90
6375;DHT22;35400;45.472;-122.822;2023-05-07T02:03:45;16.90;99.90
6375;DHT22;35400;45.472;-122.822;2023-05-07T02:06:19;16.80;99.90
6375;DHT22;35400;45.472;-122.822;2023-05-07T02:08:47;16.70;99.90
6375;DHT22;35400;45.472;-122.822;2023-05-07T02:21:08;16.20;99.90
6375;DHT22;35400;45.472;-122.822;2023-05-07T02:36:09;15.90;99.90
6375;DHT22;35400;45.472;-122.822;2023-05-07T03:16:14;14.70;99.90
6375;DHT22;35400;45.472;-122.822;2023-05-07T03:23:41;14.60;99.90
6375;DHT22;35400;45.472;-122.822;2023-05-07T03:26:08;14.60;99.90
6375;DHT22;35400;45.472;-122.822;2023-05-07T03:28:36;14.50;99.90
6375;DHT22;35400;45.472;-122.822;2023-05-07T03:31:05;14.40;99.90
6375;DHT22;35400;45.472;-122.822;2023-05-07T03:33:49;14.40;99.90
6375;DHT22;35400;45.472;-122.822;2023-05-07T03:36:16;14.30;99.90
6375;DHT22;35400;45.472;-122.822;2023-05-07T03:38:44;14.20;99.90
6375;DHT22;35400;45.472;-122.822;2023-05-07T03:41:12;14.20;99.90
6375;DHT22;35400;45.472;-122.822;2023-05-07T03:43:39;14.20;99.90
6375;DHT22;35400;45.472;-122.822;2023-05-07T03:46:09;14.10;99.90
6375;DHT22;35400;45.472;-122.822;2023-05-07T03:48:36;14.00;99.90
6375;DHT22;35400;45.472;-122.822;2023-05-07T03:51:03;14.00;99.90
6375;DHT22;35400;45.472;-122.822;2023-05-07T03:53:32;14.00;99.90
6375;DHT22;35400;45.472;-122.822;2023-05-07T03:56:00;13.90;99.90
6375;DHT22;35400;45.472;-122.822;2023-05-07T03:58:29;13.90;99.90
6375;DHT22;35400;45.472;-122.822;2023-05-07T04:00:59;13.80;99.90
6375;DHT22;35400;45.472;-122.822;2023-05-07T04:03:29;13.80;99.90
6375;DHT22;35400;45.472;-122.822;2023-05-07T04:13:30;13.60;99.90
6375;DHT22;35400;45.472;-122.822;2023-05-07T04:15:58;13.60;99.90
6375;DHT22;35400;45.472;-122.822;2023-05-07T04:18:26;13.60;99.90
6375;DHT22;35400;45.472;-122.822;2023-05-07T04:20:53;13.50;99.90
6375;DHT22;35400;45.472;-122.822;2023-05-07T04:23:21;13.40;99.90
6375;DHT22;35400;45.472;-122.822;2023-05-07T04:31:12;13.20;99.90
6375;DHT22;35400;45.472;-122.822;2023-05-07T04:33:40;13.20;99.90
6375;DHT22;35400;45.472;-122.822;2023-05-07T04:41:16;12.90;99.90
6375;DHT22;35400;45.472;-122.822;2023-05-07T04:43:43;12.90;99.90
6375;DHT22;35400;45.472;-122.822;2023-05-07T04:51:09;12.70;99.90
6375;DHT22;35400;45.472;-122.822;2023-05-07T04:53:37;12.60;99.90
6375;DHT22;35400;45.472;-122.822;2023-05-07T04:56:04;12.60;99.90
6375;DHT22;35400;45.472;-122.822;2023-05-07T04:58:38;12.50;99.90
6375;DHT22;35400;45.472;-122.822;2023-05-07T05:01:05;12.40;99.90
6375;DHT22;35400;45.472;-122.822;2023-05-07T05:03:32;12.40;99.90
6375;DHT22;35400;45.472;-122.822;2023-05-07T05:06:01;12.20;99.90
6375;DHT22;35400;45.472;-122.822;2023-05-07T05:08:32;12.20;99.90
6375;DHT22;35400;45.472;-122.822;2023-05-07T05:11:01;12.10;99.90
6375;DHT22;35400;45.472;-122.822;2023-05-07T05:13:29;12.10;99.90
6375;DHT22;35400;45.472;-122.822;2023-05-07T05:15:56;12.00;99.90
6375;DHT22;35400;45.472;-122.822;2023-05-07T05:18:25;12.00;99.90
6375;DHT22;35400;45.472;-122.822;2023-05-07T05:20:52;11.90;99.90
6375;DHT22;35400;45.472;-122.822;2023-05-07T05:23:19;11.80;99.90
6375;DHT22;35400;45.472;-122.822;2023-05-07T05:25:46;11.80;99.90
6375;DHT22;35400;45.472;-122.822;2023-05-07T05:28:14;11.80;99.90
6375;DHT22;35400;45.472;-122.822;2023-05-07T05:30:44;11.70;99.90
6375;DHT22;35400;45.472;-122.822;2023-05-07T05:33:11;11.60;99.90
6375;DHT22;35400;45.472;-122.822;2023-05-07T05:35:40;11.50;99.90
6375;DHT22;35400;45.472;-122.822;2023-05-07T05:38:11;11.50;99.90
6375;DHT22;35400;45.472;-122.822;2023-05-07T05:40:39;11.50;99.90
6375;DHT22;35400;45.472;-122.822;2023-05-07T05:45:33;11.40;99.90
6375;DHT22;35400;45.472;-122.822;2023-05-07T05:48:00;11.40;99.90
6375;DHT22;35400;45.472;-122.822;2023-05-07T05:50:28;11.40;99.90
6375;DHT22;35400;45.472;-122.822;2023-05-07T05:52:55;11.40;99.90
6375;DHT22;35400;45.472;-122.822;2023-05-07T05:55:23;11.30;99.90
6375;DHT22;35400;45.472;-122.822;2023-05-07T05:57:50;11.30;99.90
6375;DHT22;35400;45.472;-122.822;2023-05-07T06:00:18;11.30;99.90
6375;DHT22;35400;45.472;-122.822;2023-05-07T06:02:59;11.30;99.90
6375;DHT22;35400;45.472;-122.822;2023-05-07T06:05:27;11.30;99.90
6375;DHT22;35400;45.472;-122.822;2023-05-07T06:07:56;11.30;99.90
6375;DHT22;35400;45.472;-122.822;2023-05-07T06:10:23;11.30;99.90
6375;DHT22;35400;45.472;-122.822;2023-05-07T06:12:51;11.30;99.90
6375;DHT22;35400;45.472;-122.822;2023-05-07T06:15:18;11.30;99.90
6375;DHT22;35400;45.472;-122.822;2023-05-07T06:17:45;11.30;99.90
6375;DHT22;35400;45.472;-122.822;2023-05-07T06:20:12;11.30;99.90
6375;DHT22;35400;45.472;-122.822;2023-05-07T06:22:42;11.40;99.90
6375;DHT22;35400;45.472;-122.822;2023-05-07T06:25:11;11.40;99.90
6375;DHT22;35400;45.472;-122.822;2023-05-07T06:27:39;11.40;99.90
6375;DHT22;35400;45.472;-122.822;2023-05-07T06:30:07;11.40;99.90
6375;DHT22;35400;45.472;-122.822;2023-05-07T06:32:34;11.30;99.90
6375;DHT22;35400;45.472;-122.822;2023-05-07T06:35:02;11.40;99.90
6375;DHT22;35400;45.472;-122.822;2023-05-07T06:37:29;11.30;99.90
6375;DHT22;35400;45.472;-122.822;2023-05-07T06:40:02;11.40;99.90
6375;DHT22;35400;45.472;-122.822;2023-05-07T06:42:31;11.40;99.90
6375;DHT22;35400;45.472;-122.822;2023-05-07T06:45:12;11.40;99.90
6375;DHT22;35400;45.472;-122.822;2023-05-07T06:47:39;11.40;99.90
6375;DHT22;35400;45.472;-122.822;2023-05-07T06:50:06;11.40;99.90
6375;DHT22;35400;45.472;-122.822;2023-05-07T06:52:34;11.40;99.90
6375;DHT22;35400;45.472;-122.822;2023-05-07T06:55:01;11.40;99.90
6375;DHT22;35400;45.472;-122.822;2023-05-07T06:57:28;11.40;99.90
6375;DHT22;35400;45.472;-122.822;2023-05-07T06:59:55;11.40;99.90
6375;DHT22;35400;45.472;-122.822;2023-05-07T07:02:22;11.40;99.90
6375;DHT22;35400;45.472;-122.822;2023-05-07T07:04:50;11.40;99.90
6375;DHT22;35400;45.472;-122.822;2023-05-07T07:07:17;11.40;99.90
6375;DHT22;35400;45.472;-122.822;2023-05-07T07:09:46;11.30;99.90
6375;DHT22;35400;45.472;-122.822;2023-05-07T07:12:15;11.30;99.90
6375;DHT22;35400;45.472;-122.822;2023-05-07T07:14:43;11.30;99.90
6375;DHT22;35400;45.472;-122.822;2023-05-07T07:17:10;11.30;99.90
6375;DHT22;35400;45.472;-122.822;2023-05-07T07:19:36;11.30;99.90
6375;DHT22;35400;45.472;-122.822;2023-05-07T07:22:05;11.30;99.90
6375;DHT22;35400;45.472;-122.822;2023-05-07T07:24:32;11.30;99.90
6375;DHT22;35400;45.472;-122.822;2023-05-07T07:27:03;11.30;99.90
6375;DHT22;35400;45.472;-122.822;2023-05-07T07:29:32;11.30;99.90
6375;DHT22;35400;45.472;-122.822;2023-05-07T07:31:59;11.30;99.90
6375;DHT22;35400;45.472;-122.822;2023-05-07T07:34:29;11.30;99.90
6375;DHT22;35400;45.472;-122.822;2023-05-07T07:36:57;11.30;99.90
6375;DHT22;35400;45.472;-122.822;2023-05-07T07:39:26;11.30;99.90
6375;DHT22;35400;45.472;-122.822;2023-05-07T07:41:55;11.30;99.90
6375;DHT22;35400;45.472;-122.822;2023-05-07T07:44:22;11.20;99.90
6375;DHT22;35400;45.472;-122.822;2023-05-07T07:46:55;11.20;99.90
6375;DHT22;35400;45.472;-122.822;2023-05-07T07:49:24;11.20;99.90
6375;DHT22;35400;45.472;-122.822;2023-05-07T07:51:59;11.20;99.90
6375;DHT22;35400;45.472;-122.822;2023-05-07T07:54:27;11.20;99.90
6375;DHT22;35400;45.472;-122.822;2023-05-07T07:56:54;11.20;99.90
6375;DHT22;35400;45.472;-122.822;2023-05-07T07:59:21;11.20;99.90
6375;DHT22;35400;45.472;-122.822;2023-05-07T08:01:51;11.20;99.90
6375;DHT22;35400;45.472;-122.822;2023-05-07T08:04:23;11.20;99.90
6375;DHT22;35400;45.472;-122.822;2023-05-07T08:06:58;11.20;99.90
6375;DHT22;35400;45.472;-122.822;2023-05-07T08:09:25;11.10;99.90
6375;DHT22;35400;45.472;-122.822;2023-05-07T08:11:54;11.10;99.90
6375;DHT22;35400;45.472;-122.822;2023-05-07T08:14:23;11.10;99.90
6375;DHT22;35400;45.472;-122.822;2023-05-07T08:17:11;11.10;99.90
6375;DHT22;35400;45.472;-122.822;2023-05-07T08:19:38;11.10;99.90
6375;DHT22;35400;45.472;-122.822;2023-05-07T08:22:07;11.10;99.90
6375;DHT22;35400;45.472;-122.822;2023-05-07T08:24:34;11.10;99.90
6375;DHT22;35400;45.472;-122.822;2023-05-07T08:27:05;11.00;99.90
6375;DHT22;35400;45.472;-122.822;2023-05-07T08:29:32;11.00;99.90
6375;DHT22;35400;45.472;-122.822;2023-05-07T08:32:00;11.00;99.90
6375;DHT22;35400;45.472;-122.822;2023-05-07T08:34:36;11.00;99.90
6375;DHT22;35400;45.472;-122.822;2023-05-07T08:37:05;11.00;99.90
6375;DHT22;35400;45.472;-122.822;2023-05-07T08:39:35;10.90;99.90
6375;DHT22;35400;45.472;-122.822;2023-05-07T08:42:04;10.90;99.90
6375;DHT22;35400;45.472;-122.822;2023-05-07T08:44:39;10.90;99.90
6375;DHT22;35400;45.472;-122.822;2023-05-07T08:47:14;10.90;99.90
6375;DHT22;35400;45.472;-122.822;2023-05-07T08:49:41;10.80;99.90
6375;DHT22;35400;45.472;-122.822;2023-05-07T08:52:16;10.80;99.90
6375;DHT22;35400;45.472;-122.822;2023-05-07T08:54:46;10.80;99.90
6375;DHT22;35400;45.472;-122.822;2023-05-07T08:57:14;10.80;99.90
6375;DHT22;35400;45.472;-122.822;2023-05-07T08:59:41;10.80;99.90
6375;DHT22;35400;45.472;-122.822;2023-05-07T09:02:09;10.80;99.90
6375;DHT22;35400;45.472;-122.822;2023-05-07T09:04:39;10.80;99.90
6375;DHT22;35400;45.472;-122.822;2023-05-07T09:07:06;10.80;99.90
6375;DHT22;35400;45.472;-122.822;2023-05-07T09:09:37;10.70;99.90
6375;DHT22;35400;45.472;-122.822;2023-05-07T09:12:06;10.70;99.90
6375;DHT22;35400;45.472;-122.822;2023-05-07T09:14:34;10.70;99.90
6375;DHT22;35400;45.472;-122.822;2023-05-07T09:17:06;10.70;99.90
6375;DHT22;35400;45.472;-122.822;2023-05-07T09:19:38;10.70;99.90
6375;DHT22;35400;45.472;-122.822;2023-05-07T09:22:07;10.70;99.90
6375;DHT22;35400;45.472;-122.822;2023-05-07T09:24:50;10.70;99.90
6375;DHT22;35400;45.472;-122.822;2023-05-07T09:27:20;10.60;99.90
6375;DHT22;35400;45.472;-122.822;2023-05-07T09:29:47;10.60;99.90
6375;DHT22;35400;45.472;-122.822;2023-05-07T09:32:17;10.60;99.90
6375;DHT22;35400;45.472;-122.822;2023-05-07T09:34:46;10.60;99.90
6375;DHT22;35400;45.472;-122.822;2023-05-07T09:37:15;10.60;99.90
6375;DHT22;35400;45.472;-122.822;2023-05-07T09:40:19;10.60;99.90
6375;DHT22;35400;45.472;-122.822;2023-05-07T09:42:49;10.60;99.90
6375;DHT22;35400;45.472;-122.822;2023-05-07T09:45:34;10.60;99.90
6375;DHT22;35400;45.472;-122.822;2023-05-07T09:48:06;10.60;99.90
6375;DHT22;35400;45.472;-122.822;2023-05-07T09:50:48;10.60;99.90
6375;DHT22;35400;45.472;-122.822;2023-05-07T09:53:17;10.50;99.90
6375;DHT22;35400;45.472;-122.822;2023-05-07T09:55:45;10.50;99.90
6375;DHT22;35400;45.472;-122.822;2023-05-07T09:58:18;10.50;99.90
6375;DHT22;35400;45.472;-122.822;2023-05-07T10:00:50;10.50;99.90
6375;DHT22;35400;45.472;-122.822;2023-05-07T10:03:19;10.50;99.90
6375;DHT22;35400;45.472;-122.822;2023-05-07T10:05:55;10.50;99.90
6375;DHT22;35400;45.472;-122.822;2023-05-07T10:08:25;10.50;99.90
6375;DHT22;35400;45.472;-122.822;2023-05-07T10:10:59;10.50;99.90
6375;DHT22;35400;45.472;-122.822;2023-05-07T10:13:29;10.50;99.90
6375;DHT22;35400;45.472;-122.822;2023-05-07T10:15:58;10.40;99.90
6375;DHT22;35400;45.472;-122.822;2023-05-07T10:18:33;10.40;99.90
6375;DHT22;35400;45.472;-122.822;2023-05-07T10:21:23;10.40;99.90
6375;DHT22;35400;45.472;-122.822;2023-05-07T10:23:59;10.40;99.90
6375;DHT22;35400;45.472;-122.822;2023-05-07T10:26:29;10.40;99.90
6375;DHT22;35400;45.472;-122.822;2023-05-07T10:29:07;10.40;99.90
6375;DHT22;35400;45.472;-122.822;2023-05-07T10:31:42;10.40;99.90
6375;DHT22;35400;45.472;-122.822;2023-05-07T10:34:16;10.40;99.90
6375;DHT22;35400;45.472;-122.822;2023-05-07T10:36:50;10.30;99.90
6375;DHT22;35400;45.472;-122.822;2023-05-07T10:39:20;10.30;99.90
6375;DHT22;35400;45.472;-122.822;2023-05-07T10:41:48;10.30;99.90
6375;DHT22;35400;45.472;-122.822;2023-05-07T10:44:29;10.30;99.90
6375;DHT22;35400;45.472;-122.822;2023-05-07T10:47:12;10.30;99.90
6375;DHT22;35400;45.472;-122.822;2023-05-07T10:52:22;10.30;99.90
6375;DHT22;35400;45.472;-122.822;2023-05-07T10:57:56;10.30;99.90
6375;DHT22;35400;45.472;-122.822;2023-05-07T11:05:42;10.30;99.90
6375;DHT22;35400;45.472;-122.822;2023-05-07T11:08:23;10.30;99.90
6375;DHT22;35400;45.472;-122.822;2023-05-07T11:10:58;10.30;99.90
6375;DHT22;35400;45.472;-122.822;2023-05-07T11:13:47;10.20;99.90
6375;DHT22;35400;45.472;-122.822;2023-05-07T11:16:38;10.20;99.90
6375;DHT22;35400;45.472;-122.822;2023-05-07T11:19:51;10.20;99.90
6375;DHT22;35400;45.472;-122.822;2023-05-07T11:25:07;10.20;99.90
6375;DHT22;35400;45.472;-122.822;2023-05-07T11:27:36;10.20;99.90
6375;DHT22;35400;45.472;-122.822;2023-05-07T11:30:03;10.20;99.90
6375;DHT22;35400;45.472;-122.822;2023-05-07T11:32:41;10.20;99.90
6375;DHT22;35400;45.472;-122.822;2023-05-07T11:35:08;10.20;99.90
6375;DHT22;35400;45.472;-122.822;2023-05-07T11:37:36;10.20;99.90
6375;DHT22;35400;45.472;-122.822;2023-05-07T11:40:12;10.20;99.90
6375;DHT22;35400;45.472;-122.822;2023-05-07T11:42:41;10.20;99.90
6375;DHT22;35400;45.472;-122.822;2023-05-07T11:45:23;10.20;99.90
6375;DHT22;35400;45.472;-122.822;2023-05-07T11:47:53;10.20;99.90
6375;DHT22;35400;45.472;-122.822;2023-05-07T11:50:20;10.20;99.90
6375;DHT22;35400;45.472;-122.822;2023-05-07T11:52:53;10.10;99.90
6375;DHT22;35400;45.472;-122.822;2023-05-07T11:55:24;10.10;99.90
6375;DHT22;35400;45.472;-122.822;2023-05-07T11:57:55;10.10;99.90
6375;DHT22;35400;45.472;-122.822;2023-05-07T12:00:21;10.10;99.90
6375;DHT22;35400;45.472;-122.822;2023-05-07T12:02:48;10.10;99.90
6375;DHT22;35400;45.472;-122.822;2023-05-07T12:05:18;10.10;99.90
6375;DHT22;35400;45.472;-122.822;2023-05-07T12:07:47;10.10;99.90
6375;DHT22;35400;45.472;-122.822;2023-05-07T12:10:16;10.10;99.90
6375;DHT22;35400;45.472;-122.822;2023-05-07T12:12:46;10.10;99.90
6375;DHT22;35400;45.472;-122.822;2023-05-07T12:15:17;10.10;99.90
6375;DHT22;35400;45.472;-122.822;2023-05-07T12:17:53;10.00;99.90
6375;DHT22;35400;45.472;-122.822;2023-05-07T12:20:26;10.00;99.90
6375;DHT22;35400;45.472;-122.822;2023-05-07T12:23:04;10.00;99.90
6375;DHT22;35400;45.472;-122.822;2023-05-07T12:25:38;10.00;99.90
6375;DHT22;35400;45.472;-122.822;2023-05-07T12:28:07;10.00;99.90
6375;DHT22;35400;45.472;-122.822;2023-05-07T12:30:39;10.00;99.90
6375;DHT22;35400;45.472;-122.822;2023-05-07T12:33:17;10.00;99.90
6375;DHT22;35400;45.472;-122.822;2023-05-07T12:35:47;10.00;99.90
6375;DHT22;35400;45.472;-122.822;2023-05-07T12:38:16;10.00;99.90
6375;DHT22;35400;45.472;-122.822;2023-05-07T12:40:45;9.90;99.90
6375;DHT22;35400;45.472;-122.822;2023-05-07T12:43:27;9.90;99.90
6375;DHT22;35400;45.472;-122.822;2023-05-07T12:45:56;9.90;99.90
6375;DHT22;35400;45.472;-122.822;2023-05-07T12:48:24;9.90;99.90
6375;DHT22;35400;45.472;-122.822;2023-05-07T12:50:54;9.90;99.90
6375;DHT22;35400;45.472;-122.822;2023-05-07T12:53:23;9.90;99.90
6375;DHT22;35400;45.472;-122.822;2023-05-07T12:55:58;9.90;99.90
6375;DHT22;35400;45.472;-122.822;2023-05-07T12:58:33;9.90;99.90
6375;DHT22;35400;45.472;-122.822;2023-05-07T13:01:04;9.90;99.90
6375;DHT22;35400;45.472;-122.822;2023-05-07T13:03:37;9.90;99.90
6375;DHT22;35400;45.472;-122.822;2023-05-07T13:06:09;9.90;99.90
6375;DHT22;35400;45.472;-122.822;2023-05-07T13:08:40;9.90;99.90
6375;DHT22;35400;45.472;-122.822;2023-05-07T13:11:10;9.80;99.90
6375;DHT22;35400;45.472;-122.822;2023-05-07T13:13:38;9.80;99.90
6375;DHT22;35400;45.472;-122.822;2023-05-07T13:16:10;9.80;99.90
6375;DHT22;35400;45.472;-122.822;2023-05-07T13:18:38;9.80;99.90
6375;DHT22;35400;45.472;-122.822;2023-05-07T13:21:19;9.80;99.90
6375;DHT22;35400;45.472;-122.822;2023-05-07T13:23:46;9.80;99.90
6375;DHT22;35400;45.472;-122.822;2023-05-07T13:26:12;9.80;99.90
6375;DHT22;35400;45.472;-122.822;2023-05-07T13:28:39;9.80;99.90
6375;DHT22;35400;45.472;-122.822;2023-05-07T13:31:06;9.80;99.90
6375;DHT22;35400;45.472;-122.822;2023-05-07T13:33:33;9.80;99.90
6375;DHT22;35400;45.472;-122.822;2023-05-07T13:36:03;9.80;99.90
6375;DHT22;35400;45.472;-122.822;2023-05-07T13:38:39;9.80;99.90
6375;DHT22;35400;45.472;-122.822;2023-05-07T13:41:06;9.80;99.90
6375;DHT22;35400;45.472;-122.822;2023-05-07T13:43:36;9.80;99.90
6375;DHT22;35400;45.472;-122.822;2023-05-07T13:46:03;9.80;99.90
6375;DHT22;35400;45.472;-122.822;2023-05-07T13:48:35;9.80;99.90
6375;DHT22;35400;45.472;-122.822;2023-05-07T13:51:06;9.80;99.90
6375;DHT22;35400;45.472;-122.822;2023-05-07T13:53:35;9.80;99.90
6375;DHT22;35400;45.472;-122.822;2023-05-07T13:56:02;9.80;99.90
6375;DHT22;35400;45.472;-122.822;2023-05-07T13:58:30;9.80;99.90
6375;DHT22;35400;45.472;-122.822;2023-05-07T14:00:57;9.80;99.90
6375;DHT22;35400;45.472;-122.822;2023-05-07T14:03:26;9.80;99.90
6375;DHT22;35400;45.472;-122.822;2023-05-07T14:05:53;9.90;99.90
6375;DHT22;35400;45.472;-122.822;2023-05-07T14:08:20;9.90;99.90
6375;DHT22;35400;45.472;-122.822;2023-05-07T14:10:47;9.90;99.90
6375;DHT22;35400;45.472;-122.822;2023-05-07T14:13:14;9.90;99.90
6375;DHT22;35400;45.472;-122.822;2023-05-07T14:15:44;9.90;99.90
6375;DHT22;35400;45.472;-122.822;2023-05-07T14:18:15;10.00;99.90
6375;DHT22;35400;45.472;-122.822;2023-05-07T14:20:42;10.00;99.90
6375;DHT22;35400;45.472;-122.822;2023-05-07T14:23:14;10.00;99.90
6375;DHT22;35400;45.472;-122.822;2023-05-07T14:25:41;10.10;99.90
6375;DHT22;35400;45.472;-122.822;2023-05-07T14:28:09;10.10;99.90
6375;DHT22;35400;45.472;-122.822;2023-05-07T14:30:39;10.10;99.90
6375;DHT22;35400;45.472;-122.822;2023-05-07T14:33:06;10.20;99.90
6375;DHT22;35400;45.472;-122.822;2023-05-07T14:35:33;10.20;99.90
6375;DHT22;35400;45.472;-122.822;2023-05-07T14:38:00;10.20;99.90
6375;DHT22;35400;45.472;-122.822;2023-05-07T14:40:30;10.30;99.90
6375;DHT22;35400;45.472;-122.822;2023-05-07T14:42:59;10.20;99.90
6375;DHT22;35400;45.472;-122.822;2023-05-07T14:45:26;10.30;99.90
6375;DHT22;35400;45.472;-122.822;2023-05-07T14:47:56;10.30;99.90
6375;DHT22;35400;45.472;-122.822;2023-05-07T14:50:28;10.30;99.90
6375;DHT22;35400;45.472;-122.822;2023-05-07T14:52:55;10.40;99.90
6375;DHT22;35400;45.472;-122.822;2023-05-07T14:55:22;10.40;99.90
6375;DHT22;35400;45.472;-122.822;2023-05-07T14:57:52;10.40;99.90
6375;DHT22;35400;45.472;-122.822;2023-05-07T15:00:24;10.50;99.90
6375;DHT22;35400;45.472;-122.822;2023-05-07T15:02:56;10.50;99.90
6375;DHT22;35400;45.472;-122.822;2023-05-07T15:05:35;10.60;99.90
6375;DHT22;35400;45.472;-122.822;2023-05-07T15:08:03;10.70;99.90
6375;DHT22;35400;45.472;-122.822;2023-05-07T15:10:36;10.80;99.90
6375;DHT22;35400;45.472;-122.822;2023-05-07T15:13:08;10.80;99.90
6375;DHT22;35400;45.472;-122.822;2023-05-07T15:15:42;11.00;99.90
6375;DHT22;35400;45.472;-122.822;2023-05-07T15:18:10;11.20;99.90
6375;DHT22;35400;45.472;-122.822;2023-05-07T15:20:37;11.40;99.90
6375;DHT22;35400;45.472;-122.822;2023-05-07T15:23:05;11.60;99.90
6375;DHT22;35400;45.472;-122.822;2023-05-07T15:25:39;11.90;99.90
6375;DHT22;35400;45.472;-122.822;2023-05-07T15:28:06;12.30;99.90
6375;DHT22;35400;45.472;-122.822;2023-05-07T15:30:33;12.70;99.90
6375;DHT22;35400;45.472;-122.822;2023-05-07T15:33:06;13.00;99.90
6375;DHT22;35400;45.472;-122.822;2023-05-07T15:35:33;13.40;99.90
6375;DHT22;35400;45.472;-122.822;2023-05-07T15:38:00;13.70;99.90
6375;DHT22;35400;45.472;-122.822;2023-05-07T15:40:31;13.90;99.90
6375;DHT22;35400;45.472;-122.822;2023-05-07T15:43:05;14.00;99.90
6375;DHT22;35400;45.472;-122.822;2023-05-07T15:45:32;14.20;99.90
6375;DHT22;35400;45.472;-122.822;2023-05-07T15:47:59;14.30;99.90
6375;DHT22;35400;45.472;-122.822;2023-05-07T15:50:31;14.40;99.90
6375;DHT22;35400;45.472;-122.822;2023-05-07T15:53:12;14.50;99.90
6375;DHT22;35400;45.472;-122.822;2023-05-07T15:55:42;14.50;99.90
6375;DHT22;35400;45.472;-122.822;2023-05-07T15:58:15;14.60;99.90
6375;DHT22;35400;45.472;-122.822;2023-05-07T16:00:45;14.80;99.90
6375;DHT22;35400;45.472;-122.822;2023-05-07T16:03:12;14.90;99.90
6375;DHT22;35400;45.472;-122.822;2023-05-07T16:05:45;15.00;99.90
6375;DHT22;35400;45.472;-122.822;2023-05-07T16:08:12;14.90;99.90
6375;DHT22;35400;45.472;-122.822;2023-05-07T16:10:42;14.90;99.90
6375;DHT22;35400;45.472;-122.822;2023-05-07T16:13:12;14.90;99.90
6375;DHT22;35400;45.472;-122.822;2023-05-07T16:15:39;15.00;99.90
6375;DHT22;35400;45.472;-122.822;2023-05-07T16:18:06;15.00;99.90
6375;DHT22;35400;45.472;-122.822;2023-05-07T16:20:33;15.00;99.90
6375;DHT22;35400;45.472;-122.822;2023-05-07T16:23:03;14.90;99.90
6375;DHT22;35400;45.472;-122.822;2023-05-07T16:25:41;14.90;99.90
6375;DHT22;35400;45.472;-122.822;2023-05-07T16:28:24;15.00;99.90
6375;DHT22;35400;45.472;-122.822;2023-05-07T16:30:57;15.10;99.90
6375;DHT22;35400;45.472;-122.822;2023-05-07T16:33:27;15.30;99.90
6375;DHT22;35400;45.472;-122.822;2023-05-07T16:35:54;15.50;99.90
6375;DHT22;35400;45.472;-122.822;2023-05-07T16:38:21;15.60;99.90
6375;DHT22;35400;45.472;-122.822;2023-05-07T16:40:52;15.80;99.90
6375;DHT22;35400;45.472;-122.822;2023-05-07T16:43:19;16.00;99.90
6375;DHT22;35400;45.472;-122.822;2023-05-07T16:45:48;16.00;99.90
6375;DHT22;35400;45.472;-122.822;2023-05-07T16:48:16;16.10;99.90
6375;DHT22;35400;45.472;-122.822;2023-05-07T16:50:45;16.10;99.90
6375;DHT22;35400;45.472;-122.822;2023-05-07T16:53:22;16.10;99.90
6375;DHT22;35400;45.472;-122.822;2023-05-07T16:55:52;16.20;99.90
6375;DHT22;35400;45.472;-122.822;2023-05-07T16:58:24;16.20;99.90
6375;DHT22;35400;45.472;-122.822;2023-05-07T17:00:52;16.30;99.90
6375;DHT22;35400;45.472;-122.822;2023-05-07T17:03:29;16.40;99.90